Weather at Topeka Regional Airport

Public forecast

Using degrees Fahrenheit for public forecast. Weather courtesy of forecast.io.

Current aviation weather report (METAR) for Topeka Regional Airport

2024/07/13 18:53 (retrieved 30 minutes ago)

KFOE 131853Z 17017G27KT 10SM CLR 32/22 A3003 RMK AO2 PK WND 17027/1853 SLP155 T03220222

Aviation forecast (TAF) for Topeka Regional Airport

2024/07/13 18:22 (retrieved 1 hour ago)

TAF KFOE 131720Z 1318/1418 19016G26KT P6SM SCT150 FM140100 19012KT P6SM SCT150